Terminal Aerodrome Forecast
Issued by NWS Sioux Falls, SD

Home | Current Version | Previous Version | Text Only | Print | Product List | Glossary Off
Versions: 1 2 3 4 5 6 7 8 9 10 11 12 13 14

000
FTUS43 KFSD 261013 AAC
TAFFSD
TAF AMD
KFSD 261013Z 2610/2706 02005KT P6SM SCT010 BKN080
      TEMPO 2610/2614 BKN010
     FM261500 02010KT P6SM SCT015 OVC050
     FM262200 35009KT P6SM BKN100=

USA.gov is the U.S. government's official web portal to all federal, state and local government web resources and services.